ENTK1: Smokey Hill River, Enterprise, KS

Data processed at Fri Aug 18 2017 20:48


All information presented herein is the property of the government of the United States of America and may be revised or deleted at any time without prior notice.
Dissemination of this information without the expressed written consent of the Public Affairs Office, Tulsa District U.S. Army Corps of Engineers is strictly prohibited.
These data are gathered electronically and, as presented, have not undergone any form of quality control. These data are not guaranteed to be valid or correct.
Go to home page.
Go to station list.


Previous Day
Next Day
Current Day


    
SHEF ID:       ENTK1     SMOKY HILL R AT ENTERPRISE, KS
STATION TYPE:  

               PRECIP     STAGE  RIV-FLOW  BAT-LOAD
                   in        ft       cfs      volt
              Ccp-Rev   Ccp-Rev   Ccp-Rev   Ccp-Rev
(US/Central)
08/18 00:00      0.00      7.27       516     12.83
08/18 01:00      0.00      7.28       520     12.77
08/18 02:00      0.00      7.27       516     12.77
08/18 03:00      0.00      7.25       509     12.77
08/18 04:00      0.00      7.27       516     12.71
08/18 05:00      0.00      7.26       513     12.71
08/18 06:00      0.00      7.27       516     12.65
08/18 07:00      0.00      7.26       513     12.65
08/18 08:00      0.00      7.27       516     12.71
08/18 09:00      0.00      7.26       513     12.95
08/18 10:00      0.00      7.26       513     13.24
08/18 11:00      0.00      7.25       509     13.24
08/18 12:00      0.00      7.26       513     13.30
08/18 13:00      0.00      7.28       520     13.24
08/18 14:00      0.00      7.27       516     13.24
08/18 15:00      0.00      7.28       520     13.24
08/18 16:00      0.00      7.27       516     13.18
08/18 17:00      0.00      7.27       516     13.12
08/18 18:00      0.00      7.27       516     13.12
08/18 19:00      0.00      7.27       516     13.00
08/18 20:00      0.00      7.26       513     12.89
08/18 21:00      ----      ----      ----      ----
08/18 22:00      ----      ----      ----      ----
08/18 23:00      ----      ----      ----      ----